Terminal Aerodrome Forecast
Issued by NWS

Home | Current Version | Previous Version | Text Only | Print | Product List | Glossary On
Versions: 1 2 3 4 5 6 7 8 9 10 11 12 13 14 15 16 17 18 19
000
FTUS43 KGRB 171100 RRA
TAFCWA
TAF
KCWA 171142Z 1712/1812 12010G17KT 3SM -SN BKN015 OVC035
      TEMPO 1712/1714 1SM -SN OVC009
     FM171400 17006KT P6SM SCT009 OVC020
      TEMPO 1714/1717 5SM BR OVC009
     FM171700 28010G17KT P6SM BKN025
     FM172200 29009KT P6SM BKN035
     FM180300 31004KT P6SM SCT035=

USA.gov is the U.S. government's official web portal to all federal, state and local government web resources and services.